createdAt,value
2019-03-23T00:01:23.311Z,4.13
2019-03-23T00:03:50.818Z,4.33
2019-03-23T00:06:18.132Z,4.17
2019-03-23T00:08:45.432Z,4.67
2019-03-23T00:11:13.408Z,4.53
2019-03-23T00:13:40.718Z,4.33
2019-03-23T00:16:08.096Z,4.17
2019-03-23T00:18:35.571Z,4.93
2019-03-23T00:21:03.044Z,4.70
2019-03-23T00:23:30.352Z,3.83
2019-03-23T00:25:57.679Z,4.90
2019-03-23T00:28:26.004Z,6.20
2019-03-23T00:30:53.314Z,8.50
2019-03-23T00:33:20.924Z,14.97
2019-03-23T00:35:48.236Z,14.50
2019-03-23T00:38:15.563Z,12.77
2019-03-23T00:40:43.080Z,9.53
2019-03-23T00:43:10.385Z,9.63
2019-03-23T00:45:37.690Z,7.90
2019-03-23T00:48:05.232Z,6.73
2019-03-23T00:50:32.545Z,6.27
2019-03-23T00:52:59.836Z,5.73
2019-03-23T00:55:27.392Z,6.13
2019-03-23T00:57:54.704Z,6.57
2019-03-23T01:00:22.177Z,6.03
2019-03-23T01:02:49.546Z,5.90
2019-03-23T01:05:16.844Z,5.90
2019-03-23T01:07:44.676Z,6.40
2019-03-23T01:10:13.258Z,6.03
2019-03-23T01:12:41.027Z,7.30
2019-03-23T01:15:09.908Z,6.60
2019-03-23T01:17:37.563Z,7.17
2019-03-23T01:20:09.337Z,7.20
2019-03-23T01:22:36.785Z,7.90
2019-03-23T01:25:05.464Z,7.33
2019-03-23T01:27:33.133Z,7.50
2019-03-23T01:30:00.432Z,8.17
2019-03-23T01:32:28.039Z,8.67
2019-03-23T01:34:55.481Z,8.33
2019-03-23T01:37:23.153Z,8.07
2019-03-23T01:39:50.451Z,9.73
2019-03-23T01:42:17.760Z,9.80
2019-03-23T01:44:45.740Z,11.07
2019-03-23T01:47:13.762Z,12.37
2019-03-23T01:49:41.089Z,14.90
2019-03-23T01:52:08.908Z,20.07
2019-03-23T01:54:36.220Z,20.63
2019-03-23T01:57:03.636Z,23.23
2019-03-23T01:59:31.060Z,24.23
2019-03-23T02:01:58.735Z,25.03
2019-03-23T02:04:26.172Z,25.30
2019-03-23T02:06:53.670Z,25.53
2019-03-23T02:09:21.212Z,26.00
2019-03-23T02:11:48.760Z,25.67
2019-03-23T02:14:16.072Z,26.03
2019-03-23T02:16:43.392Z,27.20
2019-03-23T02:19:11.328Z,26.80
2019-03-23T02:21:38.636Z,25.73
2019-03-23T02:24:06.136Z,27.70
2019-03-23T02:26:33.719Z,27.83
2019-03-23T02:29:01.361Z,26.50
2019-03-23T02:31:28.809Z,28.00
2019-03-23T02:33:56.482Z,27.70
2019-03-23T02:36:24.055Z,27.23
2019-03-23T02:38:51.794Z,27.60
2019-03-23T02:41:19.105Z,26.90
2019-03-23T02:43:46.920Z,22.60
2019-03-23T02:46:14.220Z,21.90
2019-03-23T02:48:41.824Z,23.23
2019-03-23T02:51:09.288Z,23.57
2019-03-23T02:53:36.942Z,22.77
2019-03-23T02:56:04.248Z,23.53
2019-03-23T02:58:31.601Z,23.37
2019-03-23T03:00:59.304Z,24.67
2019-03-23T03:03:26.754Z,25.33
2019-03-23T03:05:54.069Z,26.97
2019-03-23T03:08:21.681Z,27.80
2019-03-23T03:10:49.134Z,26.60
2019-03-23T03:13:16.779Z,27.83
2019-03-23T03:15:44.124Z,29.40
2019-03-23T03:18:11.592Z,29.77
2019-03-23T03:20:39.391Z,29.13
2019-03-23T03:23:07.429Z,30.60
2019-03-23T03:25:35.197Z,33.60
2019-03-23T03:28:02.724Z,34.43
2019-03-23T03:30:30.206Z,34.97
2019-03-23T03:32:57.517Z,36.43
2019-03-23T03:35:24.830Z,35.27
2019-03-23T03:37:56.681Z,38.63
2019-03-23T03:40:21.519Z,37.47
2019-03-23T03:42:48.899Z,38.20
2019-03-23T03:45:23.951Z,38.60
2019-03-23T03:47:51.265Z,40.10
2019-03-23T03:50:18.858Z,40.57
2019-03-23T03:52:46.320Z,39.67
2019-03-23T03:55:13.766Z,40.20
2019-03-23T03:57:41.072Z,40.80
2019-03-23T04:00:08.864Z,49.70
2019-03-23T04:02:36.547Z,46.50
2019-03-23T04:05:04.615Z,43.60
2019-03-23T04:07:31.928Z,42.23
2019-03-23T04:09:59.526Z,43.43
2019-03-23T04:12:26.831Z,44.37
2019-03-23T04:14:54.146Z,46.80
2019-03-23T04:17:21.536Z,43.33
2019-03-23T04:19:48.933Z,45.17
2019-03-23T04:22:16.397Z,47.17
2019-03-23T04:24:43.732Z,42.70
2019-03-23T04:27:12.120Z,45.30
2019-03-23T04:29:39.432Z,44.80
2019-03-23T04:32:07.038Z,45.57
2019-03-23T04:34:34.366Z,44.67
2019-03-23T04:37:01.680Z,46.20
2019-03-23T04:39:29.197Z,43.37
2019-03-23T04:41:56.510Z,43.37
2019-03-23T04:44:24.715Z,45.57
2019-03-23T04:46:52.202Z,42.90
2019-03-23T04:49:19.840Z,43.07
2019-03-23T04:51:47.497Z,47.17
2019-03-23T04:54:14.812Z,48.57
2019-03-23T04:56:42.126Z,43.43
2019-03-23T04:59:09.513Z,44.40
2019-03-23T05:01:36.824Z,43.07
2019-03-23T05:04:04.146Z,44.40
2019-03-23T05:06:31.623Z,42.63
2019-03-23T05:08:59.396Z,43.63
2019-03-23T05:11:27.349Z,43.13
2019-03-23T05:13:54.832Z,42.87
2019-03-23T05:16:22.665Z,41.83
2019-03-23T05:18:49.977Z,43.43
2019-03-23T05:21:17.789Z,42.30
2019-03-23T05:23:45.923Z,42.83
2019-03-23T05:26:13.456Z,41.03
2019-03-23T05:28:40.804Z,40.27
2019-03-23T05:31:08.111Z,41.20
2019-03-23T05:33:35.684Z,40.97
2019-03-23T05:36:03.337Z,41.93
2019-03-23T05:38:30.672Z,37.63
2019-03-23T05:40:58.030Z,38.80
2019-03-23T05:43:25.509Z,39.93
2019-03-23T05:45:52.808Z,36.20
2019-03-23T05:48:20.121Z,37.20
2019-03-23T05:50:47.503Z,37.73
2019-03-23T05:53:15.120Z,35.90
2019-03-23T05:55:42.428Z,35.90
2019-03-23T05:58:09.736Z,35.47
2019-03-23T06:00:37.573Z,35.63
2019-03-23T06:03:04.925Z,44.40
2019-03-23T06:05:32.483Z,35.60
2019-03-23T06:07:59.832Z,36.77
2019-03-23T06:10:27.224Z,38.07
2019-03-23T06:12:54.800Z,36.73
2019-03-23T06:15:22.621Z,38.37
2019-03-23T06:17:50.060Z,37.67
2019-03-23T06:20:17.377Z,37.90
2019-03-23T06:22:45.034Z,38.07
2019-03-23T06:25:12.442Z,38.53
2019-03-23T06:27:39.751Z,38.00
2019-03-23T06:30:08.584Z,38.53
2019-03-23T06:32:36.516Z,38.07
2019-03-23T06:35:04.504Z,39.40
2019-03-23T06:37:31.819Z,39.57
2019-03-23T06:39:59.432Z,40.13
2019-03-23T06:42:26.739Z,38.93
2019-03-23T06:44:54.060Z,39.80
2019-03-23T06:47:21.714Z,38.60
2019-03-23T06:49:49.253Z,39.97
2019-03-23T06:52:16.695Z,39.57
2019-03-23T06:54:44.572Z,41.37
2019-03-23T06:57:12.000Z,38.80
2019-03-23T06:59:39.432Z,40.17
2019-03-23T07:02:07.142Z,41.90
2019-03-23T07:04:34.801Z,43.27
2019-03-23T07:07:02.219Z,46.87
2019-03-23T07:09:29.716Z,41.17
2019-03-23T07:11:57.035Z,41.83
2019-03-23T07:14:25.237Z,40.80
2019-03-23T07:16:52.561Z,43.50
2019-03-23T07:19:20.556Z,40.47
2019-03-23T07:21:47.872Z,41.73
2019-03-23T07:24:15.184Z,41.77
2019-03-23T07:26:42.964Z,40.67
2019-03-23T07:29:10.586Z,43.07
2019-03-23T07:31:37.919Z,40.83
2019-03-23T07:34:06.251Z,43.77
2019-03-23T07:36:33.972Z,43.37
2019-03-23T07:39:01.292Z,42.57
2019-03-23T07:41:29.292Z,43.37
2019-03-23T07:43:56.752Z,43.33
2019-03-23T07:46:24.069Z,44.20
2019-03-23T07:48:51.466Z,44.70
2019-03-23T07:51:19.112Z,44.80
2019-03-23T07:53:46.560Z,43.70
2019-03-23T07:56:14.035Z,43.00
2019-03-23T07:58:41.346Z,42.43
2019-03-23T08:01:08.652Z,42.47
2019-03-23T08:03:36.183Z,41.63
2019-03-23T08:06:03.528Z,42.03
2019-03-23T08:08:30.839Z,41.07
2019-03-23T08:10:58.364Z,42.20
2019-03-23T08:13:26.025Z,41.20
2019-03-23T08:15:53.885Z,40.80
2019-03-23T08:18:21.205Z,41.80
2019-03-23T08:20:48.796Z,42.20
2019-03-23T08:23:16.112Z,45.70
2019-03-23T08:25:43.492Z,42.23
2019-03-23T08:28:11.387Z,45.73
2019-03-23T08:30:38.812Z,41.53
2019-03-23T08:33:06.680Z,40.87
2019-03-23T08:35:34.132Z,44.07
2019-03-23T08:38:01.450Z,67.10
2019-03-23T08:40:28.758Z,48.30
2019-03-23T08:42:56.161Z,39.03
2019-03-23T08:45:23.474Z,42.20
2019-03-23T08:47:50.778Z,42.17
2019-03-23T08:50:18.264Z,40.43
2019-03-23T08:52:45.692Z,41.00
2019-03-23T08:55:13.008Z,40.30
2019-03-23T08:57:41.512Z,38.40
2019-03-23T09:00:09.314Z,36.70
2019-03-23T09:02:36.616Z,37.93
2019-03-23T09:05:05.274Z,38.87
2019-03-23T09:07:32.708Z,38.07
2019-03-23T09:10:00.457Z,37.60
2019-03-23T09:12:28.047Z,39.63
2019-03-23T09:14:55.353Z,38.20
2019-03-23T09:17:22.736Z,56.23
2019-03-23T09:19:50.608Z,44.07
2019-03-23T09:22:17.920Z,39.60
2019-03-23T09:24:45.560Z,39.23
2019-03-23T09:27:12.863Z,39.87
2019-03-23T09:29:40.419Z,39.37
2019-03-23T09:32:07.754Z,39.97
2019-03-23T09:34:35.346Z,39.73
2019-03-23T09:37:03.007Z,40.40
2019-03-23T09:39:30.543Z,42.13
2019-03-23T09:41:57.856Z,41.20
2019-03-23T09:44:25.178Z,38.97
2019-03-23T09:46:52.659Z,40.83
2019-03-23T09:49:21.994Z,40.03
2019-03-23T09:51:49.087Z,39.77
2019-03-23T09:54:16.629Z,39.77
2019-03-23T09:56:43.946Z,39.73
2019-03-23T09:59:11.560Z,39.17
2019-03-23T10:01:38.867Z,39.67
2019-03-23T10:04:06.272Z,40.70
2019-03-23T10:06:33.916Z,40.93
2019-03-23T10:09:01.229Z,39.87
2019-03-23T10:11:28.535Z,39.57
2019-03-23T10:13:56.068Z,40.33
2019-03-23T10:16:23.376Z,41.80
2019-03-23T10:18:50.761Z,39.53
2019-03-23T10:21:18.225Z,39.07
2019-03-23T10:23:45.536Z,38.17
2019-03-23T10:26:13.344Z,40.80
2019-03-23T10:28:40.652Z,45.30
2019-03-23T10:31:08.656Z,39.50
2019-03-23T10:33:36.146Z,39.10
2019-03-23T10:36:03.460Z,40.17
2019-03-23T10:38:30.836Z,40.40
2019-03-23T10:40:58.933Z,40.90
2019-03-23T10:43:26.794Z,39.77
2019-03-23T10:45:54.104Z,38.97
2019-03-23T10:48:21.725Z,43.70
2019-03-23T10:50:49.150Z,42.57
2019-03-23T10:53:22.990Z,40.60
2019-03-23T10:55:46.566Z,42.47
2019-03-23T10:58:13.964Z,42.47
2019-03-23T11:00:41.286Z,41.67
2019-03-23T11:03:09.320Z,41.90
2019-03-23T11:05:36.627Z,40.10
2019-03-23T11:08:03.993Z,42.60
2019-03-23T11:10:41.447Z,40.80
2019-03-23T11:13:01.157Z,42.83
2019-03-23T11:15:28.620Z,43.37
2019-03-23T11:17:56.284Z,41.53
2019-03-23T11:20:23.619Z,40.73
2019-03-23T11:22:50.922Z,39.47
2019-03-23T11:25:18.440Z,39.10
2019-03-23T11:27:45.758Z,38.63
2019-03-23T11:30:13.774Z,46.90
2019-03-23T11:32:41.440Z,39.63
2019-03-23T11:35:08.821Z,38.63
2019-03-23T11:37:36.611Z,32.53
2019-03-23T11:40:05.637Z,31.13
2019-03-23T11:42:32.948Z,32.20
2019-03-23T11:45:00.279Z,31.50
2019-03-23T11:47:28.008Z,29.30
2019-03-23T11:49:55.312Z,30.17
2019-03-23T11:52:22.632Z,31.57
2019-03-23T11:54:50.170Z,31.57
2019-03-23T11:57:18.264Z,33.87
2019-03-23T11:59:45.671Z,32.57
2019-03-23T12:02:12.988Z,30.07
2019-03-23T12:04:40.618Z,29.50
2019-03-23T12:07:07.916Z,29.10
2019-03-23T12:09:35.288Z,33.17
2019-03-23T12:12:02.798Z,31.37
2019-03-23T12:14:30.109Z,29.07
2019-03-23T12:16:57.678Z,26.43
2019-03-23T12:19:24.994Z,26.33
2019-03-23T12:21:52.588Z,25.90
2019-03-23T12:24:19.896Z,25.80
2019-03-23T12:26:47.888Z,27.63
2019-03-23T12:29:15.366Z,29.90
2019-03-23T12:31:43.157Z,28.23
2019-03-23T12:34:10.472Z,27.57
2019-03-23T12:36:38.132Z,26.27
2019-03-23T12:39:05.711Z,23.30
2019-03-23T12:41:33.024Z,23.10
2019-03-23T12:44:00.495Z,22.27
2019-03-23T12:46:27.804Z,23.07
2019-03-23T12:48:55.121Z,22.87
2019-03-23T12:51:22.567Z,23.10
2019-03-23T12:53:49.936Z,22.83
2019-03-23T12:56:17.370Z,24.00
2019-03-23T12:58:44.676Z,23.07
2019-03-23T13:01:12.210Z,23.50
2019-03-23T13:03:40.012Z,23.60
2019-03-23T13:06:07.601Z,23.90
2019-03-23T13:08:34.917Z,29.63
2019-03-23T13:11:02.554Z,22.63
2019-03-23T13:13:29.985Z,23.33
2019-03-23T13:15:57.295Z,22.50
2019-03-23T13:18:27.349Z,22.57
2019-03-23T13:20:53.988Z,21.70
2019-03-23T13:23:21.300Z,22.87
2019-03-23T13:25:48.889Z,22.77
2019-03-23T13:28:16.329Z,22.77
2019-03-23T13:30:43.793Z,22.50
2019-03-23T13:33:11.465Z,21.83
2019-03-23T13:35:38.776Z,20.63
2019-03-23T13:38:06.396Z,22.50
2019-03-23T13:40:33.700Z,20.83
2019-03-23T13:43:03.504Z,20.40
2019-03-23T13:45:30.315Z,20.03
2019-03-23T13:47:57.835Z,21.43
2019-03-23T13:50:26.107Z,20.50
2019-03-23T13:52:53.555Z,20.10
2019-03-23T13:55:25.384Z,20.33
2019-03-23T13:57:52.729Z,25.83
2019-03-23T14:00:20.223Z,21.00
2019-03-23T14:02:48.708Z,19.53
2019-03-23T14:05:16.471Z,20.50
2019-03-23T14:07:44.311Z,18.20
2019-03-23T14:10:12.100Z,18.80
2019-03-23T14:12:39.471Z,19.67
2019-03-23T14:15:07.219Z,20.37
2019-03-23T14:17:42.020Z,19.00
2019-03-23T14:20:09.712Z,17.80
2019-03-23T14:22:37.148Z,16.50
2019-03-23T14:25:07.684Z,16.43
2019-03-23T14:27:42.345Z,17.87
2019-03-23T14:30:09.974Z,17.17
2019-03-23T14:32:37.834Z,17.63
2019-03-23T14:35:13.568Z,17.00
2019-03-23T14:37:40.912Z,18.60
2019-03-23T14:40:08.371Z,19.73
2019-03-23T14:42:40.724Z,18.13
2019-03-23T14:45:11.111Z,18.43
2019-03-23T14:47:40.023Z,18.00
2019-03-23T14:50:07.947Z,18.73
2019-03-23T14:52:35.249Z,18.73
2019-03-23T14:55:03.743Z,18.80
2019-03-23T14:57:34.061Z,19.30
2019-03-23T15:00:02.324Z,19.13
2019-03-23T15:02:29.629Z,19.27
2019-03-23T15:04:56.964Z,19.50
2019-03-23T15:07:24.863Z,19.20
2019-03-23T15:09:52.496Z,21.20
2019-03-23T15:12:19.810Z,20.10
2019-03-23T15:14:47.435Z,21.20
2019-03-23T15:17:14.880Z,19.37
2019-03-23T15:19:42.357Z,20.40
2019-03-23T15:22:09.784Z,33.50
2019-03-23T15:24:37.257Z,22.13
2019-03-23T15:27:04.844Z,20.20
2019-03-23T15:29:32.155Z,24.73
2019-03-23T15:31:59.624Z,20.47
2019-03-23T15:34:27.280Z,21.17
2019-03-23T15:36:54.768Z,21.83
2019-03-23T15:39:22.195Z,21.97
2019-03-23T15:41:49.640Z,20.67
2019-03-23T15:44:17.040Z,21.93
2019-03-23T15:46:44.389Z,21.07
2019-03-23T15:49:12.209Z,22.13
2019-03-23T15:51:39.517Z,22.30
2019-03-23T15:54:06.831Z,22.20
2019-03-23T15:56:34.231Z,24.80
2019-03-23T15:59:02.232Z,24.37
2019-03-23T16:01:29.522Z,23.03
2019-03-23T16:03:56.836Z,21.83
2019-03-23T16:06:24.226Z,23.20
2019-03-23T16:08:51.618Z,23.13
2019-03-23T16:11:18.933Z,36.80
2019-03-23T16:13:46.676Z,25.20
2019-03-23T16:16:14.094Z,23.20
2019-03-23T16:18:41.463Z,21.43
2019-03-23T16:21:08.776Z,24.13
2019-03-23T16:23:36.410Z,23.90
2019-03-23T16:26:03.954Z,22.37
2019-03-23T16:28:31.264Z,22.77
2019-03-23T16:30:58.752Z,21.73
2019-03-23T16:33:26.060Z,22.23
2019-03-23T16:35:53.372Z,23.53
2019-03-23T16:38:20.952Z,22.70
2019-03-23T16:40:48.268Z,23.43
2019-03-23T16:43:15.609Z,24.67
2019-03-23T16:45:43.700Z,23.43
2019-03-23T16:48:11.015Z,29.83
2019-03-23T16:50:38.605Z,27.03
2019-03-23T16:53:05.927Z,26.37
2019-03-23T16:55:33.248Z,24.47
2019-03-23T16:58:02.692Z,24.87
2019-03-23T17:00:34.121Z,24.73
2019-03-23T17:03:01.600Z,25.23
2019-03-23T17:05:29.488Z,28.00
2019-03-23T17:07:56.800Z,25.17
2019-03-23T17:10:24.399Z,24.87
2019-03-23T17:12:55.468Z,24.93
2019-03-23T17:15:20.747Z,25.23
2019-03-23T17:17:48.609Z,23.83
2019-03-23T17:20:15.924Z,24.27
2019-03-23T17:22:43.306Z,25.43
2019-03-23T17:25:10.975Z,25.27
2019-03-23T17:27:38.279Z,25.70
2019-03-23T17:30:07.941Z,25.87
2019-03-23T17:32:35.532Z,27.00
2019-03-23T17:35:03.513Z,26.67
2019-03-23T17:37:30.910Z,26.27
2019-03-23T17:39:58.224Z,27.73
2019-03-23T17:42:25.923Z,25.70
2019-03-23T17:44:53.246Z,26.93
2019-03-23T17:47:20.556Z,26.80
2019-03-23T17:49:48.255Z,27.17
2019-03-23T17:52:15.633Z,26.17
2019-03-23T17:54:42.944Z,27.70
2019-03-23T17:57:10.550Z,33.77
2019-03-23T17:59:38.000Z,34.37
2019-03-23T18:02:05.571Z,28.57
2019-03-23T18:04:33.363Z,27.50
2019-03-23T18:07:00.667Z,27.07
2019-03-23T18:09:27.985Z,27.73
2019-03-23T18:11:55.408Z,30.10
2019-03-23T18:14:24.179Z,27.03
2019-03-23T18:16:51.496Z,25.93
2019-03-23T18:19:19.089Z,26.47
2019-03-23T18:21:46.542Z,26.00
2019-03-23T18:24:14.198Z,25.33
2019-03-23T18:26:41.506Z,38.73
2019-03-23T18:29:09.087Z,38.80
2019-03-23T18:31:36.573Z,29.43
2019-03-23T18:34:04.809Z,27.07
2019-03-23T18:36:32.124Z,27.40
2019-03-23T18:38:59.432Z,27.53
2019-03-23T18:41:26.856Z,34.60
2019-03-23T18:43:54.201Z,28.13
2019-03-23T18:46:21.508Z,29.50
2019-03-23T18:48:49.580Z,29.80
2019-03-23T18:51:16.899Z,30.27
2019-03-23T18:53:44.485Z,28.37
2019-03-23T18:56:11.801Z,26.30
2019-03-23T18:58:39.314Z,24.77
2019-03-23T19:01:07.051Z,22.97
2019-03-23T19:03:34.373Z,22.07
2019-03-23T19:06:01.761Z,23.83
2019-03-23T19:08:29.424Z,17.23
2019-03-23T19:10:56.755Z,15.90
2019-03-23T19:13:24.328Z,13.13
2019-03-23T19:15:51.771Z,12.60
2019-03-23T19:18:19.246Z,11.47
2019-03-23T19:20:46.564Z,11.17
2019-03-23T19:23:13.875Z,11.83
2019-03-23T19:25:41.436Z,14.73
2019-03-23T19:28:08.834Z,11.13
2019-03-23T19:30:36.144Z,10.83
2019-03-23T19:33:06.211Z,10.43
2019-03-23T19:35:33.012Z,9.77
2019-03-23T19:38:00.741Z,10.23
2019-03-23T19:40:28.043Z,10.47
2019-03-23T19:42:55.435Z,15.23
2019-03-23T19:45:22.909Z,12.27
2019-03-23T19:47:50.581Z,11.93
2019-03-23T19:50:18.205Z,11.20
2019-03-23T19:52:45.676Z,11.50
2019-03-23T19:55:13.277Z,11.47
2019-03-23T19:57:40.788Z,11.83
2019-03-23T20:00:09.272Z,11.73
2019-03-23T20:02:37.131Z,11.57
2019-03-23T20:05:06.208Z,11.87
2019-03-23T20:07:33.572Z,12.37
2019-03-23T20:10:01.149Z,13.23
2019-03-23T20:12:28.460Z,13.67
2019-03-23T20:14:55.837Z,12.50
2019-03-23T20:17:23.236Z,12.80
2019-03-23T20:19:50.576Z,12.73
2019-03-23T20:22:17.879Z,14.07
2019-03-23T20:24:45.471Z,14.03
2019-03-23T20:27:12.908Z,14.00
2019-03-23T20:29:40.571Z,14.17
2019-03-23T20:32:07.884Z,14.30
2019-03-23T20:34:35.486Z,15.03
2019-03-23T20:37:02.934Z,14.80
2019-03-23T20:39:30.245Z,14.73
2019-03-23T20:41:57.875Z,14.73
2019-03-23T20:44:25.188Z,14.57
2019-03-23T20:46:52.497Z,15.67
2019-03-23T20:49:20.312Z,14.03
2019-03-23T20:51:48.127Z,15.17
2019-03-23T20:54:15.528Z,13.63
2019-03-23T20:56:43.002Z,15.50
2019-03-23T20:59:11.068Z,14.47
2019-03-23T21:01:38.488Z,15.70
2019-03-23T21:04:05.801Z,16.07
2019-03-23T21:06:33.205Z,14.67
2019-03-23T21:09:00.663Z,15.07
2019-03-23T21:11:27.983Z,14.50
2019-03-23T21:13:55.368Z,14.20
2019-03-23T21:16:22.832Z,12.70
2019-03-23T21:18:50.900Z,12.50
2019-03-23T21:21:18.213Z,13.27
2019-03-23T21:23:45.520Z,21.90
2019-03-23T21:26:13.073Z,15.57
2019-03-23T21:28:40.385Z,12.60
2019-03-23T21:31:07.687Z,14.47
2019-03-23T21:33:38.847Z,16.00
2019-03-23T21:36:04.496Z,13.67
2019-03-23T21:38:31.997Z,11.53
2019-03-23T21:40:59.660Z,9.13
2019-03-23T21:43:27.516Z,8.27
2019-03-23T21:45:54.817Z,8.73
2019-03-23T21:48:22.430Z,7.90
2019-03-23T21:50:50.108Z,7.43
2019-03-23T21:53:17.418Z,7.93
2019-03-23T21:55:44.728Z,7.10
2019-03-23T21:58:12.118Z,6.73
2019-03-23T22:00:39.410Z,5.87
2019-03-23T22:03:06.792Z,6.17
2019-03-23T22:05:34.411Z,6.53
2019-03-23T22:08:01.761Z,5.23
2019-03-23T22:10:29.124Z,5.73
2019-03-23T22:12:56.634Z,5.93
2019-03-23T22:15:24.037Z,5.07
2019-03-23T22:17:51.475Z,5.13
2019-03-23T22:20:18.937Z,5.50
2019-03-23T22:22:46.244Z,4.90
2019-03-23T22:25:13.850Z,4.77
2019-03-23T22:27:41.160Z,4.23
2019-03-23T22:30:13.090Z,4.43
2019-03-23T22:32:40.432Z,4.83
2019-03-23T22:35:08.170Z,4.43
2019-03-23T22:37:35.821Z,4.70
2019-03-23T22:40:04.660Z,4.27
2019-03-23T22:42:32.178Z,5.00
2019-03-23T22:44:59.493Z,4.00
2019-03-23T22:47:27.093Z,4.50
2019-03-23T22:49:54.401Z,4.73
2019-03-23T22:52:21.708Z,4.87
2019-03-23T22:54:49.256Z,5.13
2019-03-23T22:57:16.559Z,5.23
2019-03-23T22:59:44.148Z,4.57
2019-03-23T23:02:11.769Z,4.40
2019-03-23T23:04:39.076Z,3.93
2019-03-23T23:07:06.513Z,4.70
2019-03-23T23:09:33.988Z,4.23
2019-03-23T23:12:01.300Z,4.40
2019-03-23T23:14:28.597Z,4.50
2019-03-23T23:16:56.152Z,5.33
2019-03-23T23:19:23.580Z,5.53
2019-03-23T23:21:51.133Z,4.20
2019-03-23T23:24:18.924Z,4.73
2019-03-23T23:26:46.227Z,4.70
2019-03-23T23:29:14.440Z,5.07
2019-03-23T23:31:41.739Z,4.57
2019-03-23T23:34:09.360Z,4.87
2019-03-23T23:36:37.011Z,4.43
2019-03-23T23:39:06.108Z,4.63
2019-03-23T23:41:33.424Z,4.97
2019-03-23T23:44:01.031Z,4.50
2019-03-23T23:46:28.896Z,6.00
2019-03-23T23:48:56.197Z,5.10
2019-03-23T23:51:23.495Z,5.10
2019-03-23T23:53:51.410Z,5.43
2019-03-23T23:56:18.719Z,5.10
2019-03-23T23:58:46.028Z,4.70
